sensor_id;sensor_type;location;lat;lon;timestamp;temperature;humidity
8420;DHT22;4247;48.550;8.822;2023-10-08T00:01:49;12.50;99.40
8420;DHT22;4247;48.550;8.822;2023-10-08T00:04:16;12.50;99.70
8420;DHT22;4247;48.550;8.822;2023-10-08T00:06:44;12.50;99.70
8420;DHT22;4247;48.550;8.822;2023-10-08T00:09:11;12.50;99.90
8420;DHT22;4247;48.550;8.822;2023-10-08T00:11:40;12.50;99.90
8420;DHT22;4247;48.550;8.822;2023-10-08T00:14:07;12.50;99.90
8420;DHT22;4247;48.550;8.822;2023-10-08T00:16:37;12.50;99.90
8420;DHT22;4247;48.550;8.822;2023-10-08T00:19:06;12.50;99.90
8420;DHT22;4247;48.550;8.822;2023-10-08T00:21:37;12.50;99.90
8420;DHT22;4247;48.550;8.822;2023-10-08T00:24:05;12.50;99.90
8420;DHT22;4247;48.550;8.822;2023-10-08T00:26:33;12.50;99.90
8420;DHT22;4247;48.550;8.822;2023-10-08T00:29:07;12.60;99.90
8420;DHT22;4247;48.550;8.822;2023-10-08T00:31:42;12.60;99.90
8420;DHT22;4247;48.550;8.822;2023-10-08T00:34:11;12.60;99.90
8420;DHT22;4247;48.550;8.822;2023-10-08T00:36:39;12.50;99.90
8420;DHT22;4247;48.550;8.822;2023-10-08T00:39:07;12.50;99.90
8420;DHT22;4247;48.550;8.822;2023-10-08T00:41:39;12.50;99.90
8420;DHT22;4247;48.550;8.822;2023-10-08T00:44:08;12.50;99.90
8420;DHT22;4247;48.550;8.822;2023-10-08T00:46:38;12.50;99.70
8420;DHT22;4247;48.550;8.822;2023-10-08T00:49:15;12.60;99.60
8420;DHT22;4247;48.550;8.822;2023-10-08T00:51:51;12.60;99.30
8420;DHT22;4247;48.550;8.822;2023-10-08T00:54:30;12.60;98.60
8420;DHT22;4247;48.550;8.822;2023-10-08T00:57:00;12.60;98.60
8420;DHT22;4247;48.550;8.822;2023-10-08T00:59:32;12.60;98.90
8420;DHT22;4247;48.550;8.822;2023-10-08T01:02:15;12.60;98.20
8420;DHT22;4247;48.550;8.822;2023-10-08T01:04:46;12.60;98.10
8420;DHT22;4247;48.550;8.822;2023-10-08T01:07:15;12.60;97.90
8420;DHT22;4247;48.550;8.822;2023-10-08T01:09:43;12.60;97.70
8420;DHT22;4247;48.550;8.822;2023-10-08T01:12:16;12.60;97.60
8420;DHT22;4247;48.550;8.822;2023-10-08T01:14:52;12.60;97.70
8420;DHT22;4247;48.550;8.822;2023-10-08T01:17:20;12.70;97.70
8420;DHT22;4247;48.550;8.822;2023-10-08T01:19:51;12.70;97.70
8420;DHT22;4247;48.550;8.822;2023-10-08T01:22:22;12.70;97.30
8420;DHT22;4247;48.550;8.822;2023-10-08T01:24:49;12.70;97.20
8420;DHT22;4247;48.550;8.822;2023-10-08T01:27:17;12.70;97.20
8420;DHT22;4247;48.550;8.822;2023-10-08T01:29:47;12.70;97.10
8420;DHT22;4247;48.550;8.822;2023-10-08T01:32:15;12.70;97.20
8420;DHT22;4247;48.550;8.822;2023-10-08T01:34:42;12.70;97.00
8420;DHT22;4247;48.550;8.822;2023-10-08T01:37:11;12.70;97.00
8420;DHT22;4247;48.550;8.822;2023-10-08T01:39:39;12.70;97.30
8420;DHT22;4247;48.550;8.822;2023-10-08T01:42:08;12.70;97.70
8420;DHT22;4247;48.550;8.822;2023-10-08T01:44:40;12.70;97.60
8420;DHT22;4247;48.550;8.822;2023-10-08T01:47:07;12.70;98.20
8420;DHT22;4247;48.550;8.822;2023-10-08T01:49:36;12.70;98.50
8420;DHT22;4247;48.550;8.822;2023-10-08T01:52:05;12.70;98.70
8420;DHT22;4247;48.550;8.822;2023-10-08T01:54:39;12.60;98.70
8420;DHT22;4247;48.550;8.822;2023-10-08T01:57:06;12.60;98.50
8420;DHT22;4247;48.550;8.822;2023-10-08T01:59:35;12.60;98.40
8420;DHT22;4247;48.550;8.822;2023-10-08T02:02:03;12.50;98.70
8420;DHT22;4247;48.550;8.822;2023-10-08T02:04:31;12.50;98.80
8420;DHT22;4247;48.550;8.822;2023-10-08T02:07:01;12.40;99.00
8420;DHT22;4247;48.550;8.822;2023-10-08T02:09:29;12.30;99.70
8420;DHT22;4247;48.550;8.822;2023-10-08T02:11:57;12.30;99.90
8420;DHT22;4247;48.550;8.822;2023-10-08T02:14:24;12.30;99.90
8420;DHT22;4247;48.550;8.822;2023-10-08T02:16:51;12.30;99.90
8420;DHT22;4247;48.550;8.822;2023-10-08T02:19:22;12.20;99.90
8420;DHT22;4247;48.550;8.822;2023-10-08T02:21:53;12.20;99.90
8420;DHT22;4247;48.550;8.822;2023-10-08T02:24:20;12.20;99.90
8420;DHT22;4247;48.550;8.822;2023-10-08T02:26:50;12.20;99.90
8420;DHT22;4247;48.550;8.822;2023-10-08T02:29:18;12.10;99.90
8420;DHT22;4247;48.550;8.822;2023-10-08T02:31:45;12.10;99.90
8420;DHT22;4247;48.550;8.822;2023-10-08T02:34:11;12.10;99.90
8420;DHT22;4247;48.550;8.822;2023-10-08T02:36:39;12.10;99.90
8420;DHT22;4247;48.550;8.822;2023-10-08T02:39:07;12.10;99.90
8420;DHT22;4247;48.550;8.822;2023-10-08T02:41:39;12.10;99.90
8420;DHT22;4247;48.550;8.822;2023-10-08T02:44:08;12.10;99.90
8420;DHT22;4247;48.550;8.822;2023-10-08T02:46:39;12.10;99.90
8420;DHT22;4247;48.550;8.822;2023-10-08T02:49:07;12.10;99.90
8420;DHT22;4247;48.550;8.822;2023-10-08T02:51:37;12.00;99.90
8420;DHT22;4247;48.550;8.822;2023-10-08T02:54:04;12.10;99.90
8420;DHT22;4247;48.550;8.822;2023-10-08T02:56:31;12.00;99.90
8420;DHT22;4247;48.550;8.822;2023-10-08T02:58:58;12.00;99.90
8420;DHT22;4247;48.550;8.822;2023-10-08T03:01:25;12.00;99.90
8420;DHT22;4247;48.550;8.822;2023-10-08T03:03:53;12.00;99.90
8420;DHT22;4247;48.550;8.822;2023-10-08T03:06:33;12.00;99.90
8420;DHT22;4247;48.550;8.822;2023-10-08T03:09:01;12.00;99.90
8420;DHT22;4247;48.550;8.822;2023-10-08T03:11:30;12.00;99.90
8420;DHT22;4247;48.550;8.822;2023-10-08T03:13:57;12.00;99.90
8420;DHT22;4247;48.550;8.822;2023-10-08T03:16:24;12.00;99.90
8420;DHT22;4247;48.550;8.822;2023-10-08T03:18:55;12.00;99.90
8420;DHT22;4247;48.550;8.822;2023-10-08T03:21:23;11.90;99.90
8420;DHT22;4247;48.550;8.822;2023-10-08T03:24:14;11.90;99.90
8420;DHT22;4247;48.550;8.822;2023-10-08T03:26:55;11.90;99.90
8420;DHT22;4247;48.550;8.822;2023-10-08T03:29:32;11.90;99.90
8420;DHT22;4247;48.550;8.822;2023-10-08T03:31:59;11.90;99.90
8420;DHT22;4247;48.550;8.822;2023-10-08T03:34:32;11.90;99.90
8420;DHT22;4247;48.550;8.822;2023-10-08T03:37:02;11.90;99.90
8420;DHT22;4247;48.550;8.822;2023-10-08T03:39:32;11.90;99.90
8420;DHT22;4247;48.550;8.822;2023-10-08T03:42:19;11.90;99.90
8420;DHT22;4247;48.550;8.822;2023-10-08T03:44:47;11.80;99.90
8420;DHT22;4247;48.550;8.822;2023-10-08T03:47:16;11.80;99.90
8420;DHT22;4247;48.550;8.822;2023-10-08T03:49:45;11.70;99.90
8420;DHT22;4247;48.550;8.822;2023-10-08T03:52:16;11.70;99.90
8420;DHT22;4247;48.550;8.822;2023-10-08T03:54:43;11.70;99.90
8420;DHT22;4247;48.550;8.822;2023-10-08T03:57:14;11.70;99.90
8420;DHT22;4247;48.550;8.822;2023-10-08T04:00:00;11.70;99.90
8420;DHT22;4247;48.550;8.822;2023-10-08T04:02:32;11.60;99.90
8420;DHT22;4247;48.550;8.822;2023-10-08T04:05:08;11.60;99.90
8420;DHT22;4247;48.550;8.822;2023-10-08T04:07:45;11.60;99.90
8420;DHT22;4247;48.550;8.822;2023-10-08T04:10:42;11.50;99.90
8420;DHT22;4247;48.550;8.822;2023-10-08T04:13:33;11.50;99.90
8420;DHT22;4247;48.550;8.822;2023-10-08T04:16:01;11.50;99.90
8420;DHT22;4247;48.550;8.822;2023-10-08T04:18:30;11.50;99.90
8420;DHT22;4247;48.550;8.822;2023-10-08T04:20:59;11.40;99.90
8420;DHT22;4247;48.550;8.822;2023-10-08T04:23:31;11.40;99.90
8420;DHT22;4247;48.550;8.822;2023-10-08T04:25:58;11.30;99.90
8420;DHT22;4247;48.550;8.822;2023-10-08T04:28:25;11.30;99.90
8420;DHT22;4247;48.550;8.822;2023-10-08T04:30:56;11.30;99.90
8420;DHT22;4247;48.550;8.822;2023-10-08T04:33:27;11.20;99.90
8420;DHT22;4247;48.550;8.822;2023-10-08T04:36:00;11.20;99.90
8420;DHT22;4247;48.550;8.822;2023-10-08T04:38:28;11.30;99.90
8420;DHT22;4247;48.550;8.822;2023-10-08T04:40:56;11.30;99.90
8420;DHT22;4247;48.550;8.822;2023-10-08T04:43:34;11.30;99.90
8420;DHT22;4247;48.550;8.822;2023-10-08T04:46:04;11.30;99.90
8420;DHT22;4247;48.550;8.822;2023-10-08T04:48:44;11.40;99.90
8420;DHT22;4247;48.550;8.822;2023-10-08T04:51:13;11.40;99.90
8420;DHT22;4247;48.550;8.822;2023-10-08T04:53:39;11.40;99.90
8420;DHT22;4247;48.550;8.822;2023-10-08T04:56:10;11.40;99.90
8420;DHT22;4247;48.550;8.822;2023-10-08T04:58:40;11.40;99.90
8420;DHT22;4247;48.550;8.822;2023-10-08T05:01:12;11.40;99.90
8420;DHT22;4247;48.550;8.822;2023-10-08T05:03:47;11.40;99.90
8420;DHT22;4247;48.550;8.822;2023-10-08T05:06:35;11.30;99.90
8420;DHT22;4247;48.550;8.822;2023-10-08T05:09:26;11.40;99.90
8420;DHT22;4247;48.550;8.822;2023-10-08T05:12:05;11.40;99.90
8420;DHT22;4247;48.550;8.822;2023-10-08T05:14:58;11.40;99.90
8420;DHT22;4247;48.550;8.822;2023-10-08T05:17:39;11.40;99.90
8420;DHT22;4247;48.550;8.822;2023-10-08T05:20:22;11.40;99.90
8420;DHT22;4247;48.550;8.822;2023-10-08T05:23:07;11.40;99.90
8420;DHT22;4247;48.550;8.822;2023-10-08T05:25:58;11.30;99.90
8420;DHT22;4247;48.550;8.822;2023-10-08T05:28:35;11.30;99.90
8420;DHT22;4247;48.550;8.822;2023-10-08T05:31:13;11.30;99.90
8420;DHT22;4247;48.550;8.822;2023-10-08T05:33:57;11.40;99.90
8420;DHT22;4247;48.550;8.822;2023-10-08T05:36:40;11.40;99.90
8420;DHT22;4247;48.550;8.822;2023-10-08T05:39:17;11.40;99.90
8420;DHT22;4247;48.550;8.822;2023-10-08T05:41:55;11.40;99.90
8420;DHT22;4247;48.550;8.822;2023-10-08T05:44:38;11.50;99.90
8420;DHT22;4247;48.550;8.822;2023-10-08T05:47:05;11.40;99.90
8420;DHT22;4247;48.550;8.822;2023-10-08T05:49:50;11.50;99.90
8420;DHT22;4247;48.550;8.822;2023-10-08T05:52:37;11.50;99.90
8420;DHT22;4247;48.550;8.822;2023-10-08T05:55:29;11.50;99.90
8420;DHT22;4247;48.550;8.822;2023-10-08T05:58:02;11.50;99.90
8420;DHT22;4247;48.550;8.822;2023-10-08T06:00:39;11.50;99.90
8420;DHT22;4247;48.550;8.822;2023-10-08T06:03:26;11.60;99.90
8420;DHT22;4247;48.550;8.822;2023-10-08T06:06:02;11.50;99.90
8420;DHT22;4247;48.550;8.822;2023-10-08T06:08:50;11.60;99.90
8420;DHT22;4247;48.550;8.822;2023-10-08T06:11:47;11.60;99.90
8420;DHT22;4247;48.550;8.822;2023-10-08T06:14:34;11.60;99.90
8420;DHT22;4247;48.550;8.822;2023-10-08T06:17:18;11.70;99.90
8420;DHT22;4247;48.550;8.822;2023-10-08T06:20:00;11.80;99.90
8420;DHT22;4247;48.550;8.822;2023-10-08T06:22:35;11.80;99.90
8420;DHT22;4247;48.550;8.822;2023-10-08T06:25:02;11.90;99.90
8420;DHT22;4247;48.550;8.822;2023-10-08T06:27:44;12.00;99.90
8420;DHT22;4247;48.550;8.822;2023-10-08T06:30:12;12.00;99.90
8420;DHT22;4247;48.550;8.822;2023-10-08T06:32:43;12.10;99.90
8420;DHT22;4247;48.550;8.822;2023-10-08T06:35:11;12.20;99.90
8420;DHT22;4247;48.550;8.822;2023-10-08T06:37:43;12.30;99.90
8420;DHT22;4247;48.550;8.822;2023-10-08T06:40:10;12.40;99.90
8420;DHT22;4247;48.550;8.822;2023-10-08T06:43:00;12.40;99.90
8420;DHT22;4247;48.550;8.822;2023-10-08T06:45:37;12.50;99.90
8420;DHT22;4247;48.550;8.822;2023-10-08T06:48:05;12.60;99.90
8420;DHT22;4247;48.550;8.822;2023-10-08T06:50:32;12.70;99.90
8420;DHT22;4247;48.550;8.822;2023-10-08T06:53:01;12.70;99.90
8420;DHT22;4247;48.550;8.822;2023-10-08T06:55:31;12.80;99.90
8420;DHT22;4247;48.550;8.822;2023-10-08T06:58:01;12.80;99.90
8420;DHT22;4247;48.550;8.822;2023-10-08T07:00:31;12.90;99.90
8420;DHT22;4247;48.550;8.822;2023-10-08T07:03:06;13.00;99.90
8420;DHT22;4247;48.550;8.822;2023-10-08T07:05:36;13.10;99.90
8420;DHT22;4247;48.550;8.822;2023-10-08T07:08:07;13.20;99.90
8420;DHT22;4247;48.550;8.822;2023-10-08T07:10:34;13.30;99.90
8420;DHT22;4247;48.550;8.822;2023-10-08T07:13:04;13.40;99.90
8420;DHT22;4247;48.550;8.822;2023-10-08T07:15:33;13.50;99.90
8420;DHT22;4247;48.550;8.822;2023-10-08T07:18:04;13.60;99.90
8420;DHT22;4247;48.550;8.822;2023-10-08T07:20:37;13.80;99.90
8420;DHT22;4247;48.550;8.822;2023-10-08T07:23:06;13.90;99.90
8420;DHT22;4247;48.550;8.822;2023-10-08T07:25:45;14.00;99.90
8420;DHT22;4247;48.550;8.822;2023-10-08T07:28:19;14.10;99.90
8420;DHT22;4247;48.550;8.822;2023-10-08T07:30:46;14.20;99.90
8420;DHT22;4247;48.550;8.822;2023-10-08T07:33:15;14.20;99.90
8420;DHT22;4247;48.550;8.822;2023-10-08T07:35:45;14.30;99.90
8420;DHT22;4247;48.550;8.822;2023-10-08T07:38:18;14.30;99.90
8420;DHT22;4247;48.550;8.822;2023-10-08T07:40:47;14.40;99.90
8420;DHT22;4247;48.550;8.822;2023-10-08T07:43:14;14.50;99.90
8420;DHT22;4247;48.550;8.822;2023-10-08T07:45:43;14.60;99.90
8420;DHT22;4247;48.550;8.822;2023-10-08T07:48:11;14.70;99.90
8420;DHT22;4247;48.550;8.822;2023-10-08T07:50:44;14.80;99.90
8420;DHT22;4247;48.550;8.822;2023-10-08T07:53:12;14.90;99.90
8420;DHT22;4247;48.550;8.822;2023-10-08T07:55:44;15.10;99.90
8420;DHT22;4247;48.550;8.822;2023-10-08T07:58:13;15.20;99.90
8420;DHT22;4247;48.550;8.822;2023-10-08T08:00:40;15.30;99.90
8420;DHT22;4247;48.550;8.822;2023-10-08T08:03:08;15.50;99.90
8420;DHT22;4247;48.550;8.822;2023-10-08T08:05:36;15.60;99.90
8420;DHT22;4247;48.550;8.822;2023-10-08T08:08:06;15.70;99.90
8420;DHT22;4247;48.550;8.822;2023-10-08T08:10:32;15.80;99.90
8420;DHT22;4247;48.550;8.822;2023-10-08T08:13:03;15.80;99.90
8420;DHT22;4247;48.550;8.822;2023-10-08T08:15:31;15.90;99.90
8420;DHT22;4247;48.550;8.822;2023-10-08T08:17:58;16.00;99.90
8420;DHT22;4247;48.550;8.822;2023-10-08T08:20:27;16.00;99.90
8420;DHT22;4247;48.550;8.822;2023-10-08T08:23:04;16.10;99.90
8420;DHT22;4247;48.550;8.822;2023-10-08T08:25:36;16.10;99.90
8420;DHT22;4247;48.550;8.822;2023-10-08T08:28:11;16.20;99.90
8420;DHT22;4247;48.550;8.822;2023-10-08T08:30:42;16.20;99.90
8420;DHT22;4247;48.550;8.822;2023-10-08T08:33:12;16.30;99.90
8420;DHT22;4247;48.550;8.822;2023-10-08T08:35:43;16.30;99.90
8420;DHT22;4247;48.550;8.822;2023-10-08T08:38:11;16.40;99.90
8420;DHT22;4247;48.550;8.822;2023-10-08T08:40:38;16.40;99.90
8420;DHT22;4247;48.550;8.822;2023-10-08T08:43:05;16.50;99.90
8420;DHT22;4247;48.550;8.822;2023-10-08T08:45:32;16.60;99.90
8420;DHT22;4247;48.550;8.822;2023-10-08T08:48:01;16.70;99.90
8420;DHT22;4247;48.550;8.822;2023-10-08T08:50:30;16.80;99.90
8420;DHT22;4247;48.550;8.822;2023-10-08T08:52:59;16.90;99.90
8420;DHT22;4247;48.550;8.822;2023-10-08T08:55:26;17.00;99.90
8420;DHT22;4247;48.550;8.822;2023-10-08T08:57:54;17.10;99.90
8420;DHT22;4247;48.550;8.822;2023-10-08T09:00:21;17.20;99.90
8420;DHT22;4247;48.550;8.822;2023-10-08T09:02:53;17.40;99.90
8420;DHT22;4247;48.550;8.822;2023-10-08T09:05:21;17.50;99.90
8420;DHT22;4247;48.550;8.822;2023-10-08T09:07:55;17.60;99.90
8420;DHT22;4247;48.550;8.822;2023-10-08T09:10:26;17.80;99.90
8420;DHT22;4247;48.550;8.822;2023-10-08T09:12:53;17.90;99.90
8420;DHT22;4247;48.550;8.822;2023-10-08T09:15:23;18.00;99.90
8420;DHT22;4247;48.550;8.822;2023-10-08T09:17:51;18.10;99.90
8420;DHT22;4247;48.550;8.822;2023-10-08T09:20:18;18.20;99.90
8420;DHT22;4247;48.550;8.822;2023-10-08T09:22:47;18.30;99.90
8420;DHT22;4247;48.550;8.822;2023-10-08T09:25:34;18.40;99.90
8420;DHT22;4247;48.550;8.822;2023-10-08T09:28:00;18.50;99.90
8420;DHT22;4247;48.550;8.822;2023-10-08T09:30:29;18.60;99.90
8420;DHT22;4247;48.550;8.822;2023-10-08T09:32:56;18.60;99.90
8420;DHT22;4247;48.550;8.822;2023-10-08T09:35:24;18.70;99.90
8420;DHT22;4247;48.550;8.822;2023-10-08T09:37:53;18.70;99.90
8420;DHT22;4247;48.550;8.822;2023-10-08T09:40:21;18.80;99.90
8420;DHT22;4247;48.550;8.822;2023-10-08T09:42:49;18.90;99.90
8420;DHT22;4247;48.550;8.822;2023-10-08T09:45:16;19.00;99.90
8420;DHT22;4247;48.550;8.822;2023-10-08T09:47:50;19.10;99.90
8420;DHT22;4247;48.550;8.822;2023-10-08T09:50:22;19.20;99.90
8420;DHT22;4247;48.550;8.822;2023-10-08T09:53:00;19.40;99.10
8420;DHT22;4247;48.550;8.822;2023-10-08T09:55:29;19.60;99.00
8420;DHT22;4247;48.550;8.822;2023-10-08T09:57:57;19.70;98.50
8420;DHT22;4247;48.550;8.822;2023-10-08T10:00:26;19.80;98.10
8420;DHT22;4247;48.550;8.822;2023-10-08T10:02:58;20.00;98.70
8420;DHT22;4247;48.550;8.822;2023-10-08T10:05:29;20.10;99.30
8420;DHT22;4247;48.550;8.822;2023-10-08T10:07:57;20.20;99.00
8420;DHT22;4247;48.550;8.822;2023-10-08T10:10:27;20.30;99.20
8420;DHT22;4247;48.550;8.822;2023-10-08T10:12:58;20.40;99.00
8420;DHT22;4247;48.550;8.822;2023-10-08T10:15:26;20.40;97.20
8420;DHT22;4247;48.550;8.822;2023-10-08T10:17:59;20.50;98.70
8420;DHT22;4247;48.550;8.822;2023-10-08T10:20:34;20.50;97.40
8420;DHT22;4247;48.550;8.822;2023-10-08T10:23:36;20.60;94.10
8420;DHT22;4247;48.550;8.822;2023-10-08T10:26:06;20.60;94.90
8420;DHT22;4247;48.550;8.822;2023-10-08T10:29:25;20.60;93.90
8420;DHT22;4247;48.550;8.822;2023-10-08T10:31:53;20.70;93.20
8420;DHT22;4247;48.550;8.822;2023-10-08T10:34:23;20.90;91.60
8420;DHT22;4247;48.550;8.822;2023-10-08T10:36:53;20.80;91.20
8420;DHT22;4247;48.550;8.822;2023-10-08T10:39:25;20.80;92.30
8420;DHT22;4247;48.550;8.822;2023-10-08T10:41:54;20.90;91.90
8420;DHT22;4247;48.550;8.822;2023-10-08T10:44:24;20.90;92.50
8420;DHT22;4247;48.550;8.822;2023-10-08T10:46:51;20.90;92.40
8420;DHT22;4247;48.550;8.822;2023-10-08T10:49:38;20.90;93.00
8420;DHT22;4247;48.550;8.822;2023-10-08T10:52:14;21.00;91.60
8420;DHT22;4247;48.550;8.822;2023-10-08T10:54:43;21.10;91.10
8420;DHT22;4247;48.550;8.822;2023-10-08T10:57:24;21.10;91.60
8420;DHT22;4247;48.550;8.822;2023-10-08T11:00:02;21.20;91.60
8420;DHT22;4247;48.550;8.822;2023-10-08T11:02:44;21.30;91.30
8420;DHT22;4247;48.550;8.822;2023-10-08T11:05:14;21.30;91.80
8420;DHT22;4247;48.550;8.822;2023-10-08T11:07:45;21.30;91.20
8420;DHT22;4247;48.550;8.822;2023-10-08T11:10:13;21.40;91.60
8420;DHT22;4247;48.550;8.822;2023-10-08T11:12:41;21.40;90.10
8420;DHT22;4247;48.550;8.822;2023-10-08T11:15:14;21.40;91.40
8420;DHT22;4247;48.550;8.822;2023-10-08T11:17:44;21.50;91.70
8420;DHT22;4247;48.550;8.822;2023-10-08T11:20:25;21.60;92.00
8420;DHT22;4247;48.550;8.822;2023-10-08T11:22:52;21.60;90.80
8420;DHT22;4247;48.550;8.822;2023-10-08T11:25:21;21.70;91.90
8420;DHT22;4247;48.550;8.822;2023-10-08T11:27:50;21.80;89.90
8420;DHT22;4247;48.550;8.822;2023-10-08T11:30:19;21.80;90.60
8420;DHT22;4247;48.550;8.822;2023-10-08T11:32:46;21.90;86.30
8420;DHT22;4247;48.550;8.822;2023-10-08T11:35:15;21.90;90.30
8420;DHT22;4247;48.550;8.822;2023-10-08T11:37:45;21.90;88.10
8420;DHT22;4247;48.550;8.822;2023-10-08T11:40:22;22.00;90.10
8420;DHT22;4247;48.550;8.822;2023-10-08T11:42:53;21.90;86.40
8420;DHT22;4247;48.550;8.822;2023-10-08T11:45:24;21.90;87.50
8420;DHT22;4247;48.550;8.822;2023-10-08T11:47:51;22.00;88.70
8420;DHT22;4247;48.550;8.822;2023-10-08T11:50:23;22.00;88.40
8420;DHT22;4247;48.550;8.822;2023-10-08T11:52:57;22.00;90.20
8420;DHT22;4247;48.550;8.822;2023-10-08T11:55:27;22.00;90.10
8420;DHT22;4247;48.550;8.822;2023-10-08T11:57:54;22.00;89.80
8420;DHT22;4247;48.550;8.822;2023-10-08T12:00:22;22.00;90.10
8420;DHT22;4247;48.550;8.822;2023-10-08T12:02:51;22.00;90.80
8420;DHT22;4247;48.550;8.822;2023-10-08T12:05:20;22.00;90.00
8420;DHT22;4247;48.550;8.822;2023-10-08T12:07:49;22.00;90.70
8420;DHT22;4247;48.550;8.822;2023-10-08T12:10:16;22.00;90.40
8420;DHT22;4247;48.550;8.822;2023-10-08T12:12:48;22.00;90.90
8420;DHT22;4247;48.550;8.822;2023-10-08T12:15:14;22.10;88.60
8420;DHT22;4247;48.550;8.822;2023-10-08T12:17:47;22.10;86.80
8420;DHT22;4247;48.550;8.822;2023-10-08T12:20:34;22.20;90.10
8420;DHT22;4247;48.550;8.822;2023-10-08T12:23:03;22.20;86.30
8420;DHT22;4247;48.550;8.822;2023-10-08T12:25:30;22.30;85.40
8420;DHT22;4247;48.550;8.822;2023-10-08T12:27:58;22.40;84.50
8420;DHT22;4247;48.550;8.822;2023-10-08T12:30:28;22.50;79.30
8420;DHT22;4247;48.550;8.822;2023-10-08T12:32:58;22.50;79.80
8420;DHT22;4247;48.550;8.822;2023-10-08T12:35:26;22.50;80.20
8420;DHT22;4247;48.550;8.822;2023-10-08T12:37:55;22.50;81.50
8420;DHT22;4247;48.550;8.822;2023-10-08T12:40:22;22.50;78.90
8420;DHT22;4247;48.550;8.822;2023-10-08T12:42:50;22.60;80.80
8420;DHT22;4247;48.550;8.822;2023-10-08T12:45:17;22.60;81.00
8420;DHT22;4247;48.550;8.822;2023-10-08T12:47:47;22.60;77.00
8420;DHT22;4247;48.550;8.822;2023-10-08T12:50:16;22.60;78.10
8420;DHT22;4247;48.550;8.822;2023-10-08T12:52:49;22.70;78.60
8420;DHT22;4247;48.550;8.822;2023-10-08T12:55:21;22.70;77.10
8420;DHT22;4247;48.550;8.822;2023-10-08T12:57:50;22.70;77.60
8420;DHT22;4247;48.550;8.822;2023-10-08T13:00:24;22.80;78.30
8420;DHT22;4247;48.550;8.822;2023-10-08T13:02:51;22.80;85.20
8420;DHT22;4247;48.550;8.822;2023-10-08T13:05:21;22.70;84.10
8420;DHT22;4247;48.550;8.822;2023-10-08T13:07:54;22.80;80.20
8420;DHT22;4247;48.550;8.822;2023-10-08T13:10:21;22.70;83.20
8420;DHT22;4247;48.550;8.822;2023-10-08T13:12:48;22.70;83.10
8420;DHT22;4247;48.550;8.822;2023-10-08T13:15:15;22.70;80.80
8420;DHT22;4247;48.550;8.822;2023-10-08T13:17:42;22.70;84.10
8420;DHT22;4247;48.550;8.822;2023-10-08T13:20:11;22.70;80.40
8420;DHT22;4247;48.550;8.822;2023-10-08T13:22:39;22.70;79.10
8420;DHT22;4247;48.550;8.822;2023-10-08T13:25:06;22.80;83.90
8420;DHT22;4247;48.550;8.822;2023-10-08T13:27:34;22.70;81.40
8420;DHT22;4247;48.550;8.822;2023-10-08T13:30:06;22.70;83.00
8420;DHT22;4247;48.550;8.822;2023-10-08T13:32:34;22.70;84.00
8420;DHT22;4247;48.550;8.822;2023-10-08T13:35:02;22.70;83.70
8420;DHT22;4247;48.550;8.822;2023-10-08T13:37:29;22.80;82.50
8420;DHT22;4247;48.550;8.822;2023-10-08T13:39:58;22.80;78.10
8420;DHT22;4247;48.550;8.822;2023-10-08T13:42:24;22.80;83.10
8420;DHT22;4247;48.550;8.822;2023-10-08T13:44:52;22.90;80.40
8420;DHT22;4247;48.550;8.822;2023-10-08T13:47:19;22.80;85.20
8420;DHT22;4247;48.550;8.822;2023-10-08T13:49:50;22.80;80.40
8420;DHT22;4247;48.550;8.822;2023-10-08T13:52:18;22.90;78.40
8420;DHT22;4247;48.550;8.822;2023-10-08T13:54:45;23.00;77.30
8420;DHT22;4247;48.550;8.822;2023-10-08T13:57:18;23.10;78.60
8420;DHT22;4247;48.550;8.822;2023-10-08T13:59:46;23.00;76.90
8420;DHT22;4247;48.550;8.822;2023-10-08T14:02:13;23.00;77.60
8420;DHT22;4247;48.550;8.822;2023-10-08T14:04:41;22.90;77.80
8420;DHT22;4247;48.550;8.822;2023-10-08T14:07:09;23.00;77.20
8420;DHT22;4247;48.550;8.822;2023-10-08T14:09:37;23.00;77.40
8420;DHT22;4247;48.550;8.822;2023-10-08T14:12:07;23.00;77.00
8420;DHT22;4247;48.550;8.822;2023-10-08T14:14:37;23.10;76.00
8420;DHT22;4247;48.550;8.822;2023-10-08T14:17:09;23.10;75.40
8420;DHT22;4247;48.550;8.822;2023-10-08T14:19:41;23.10;77.40
8420;DHT22;4247;48.550;8.822;2023-10-08T14:22:12;23.10;79.60
8420;DHT22;4247;48.550;8.822;2023-10-08T14:24:40;23.00;77.70
8420;DHT22;4247;48.550;8.822;2023-10-08T14:27:07;23.10;78.10
8420;DHT22;4247;48.550;8.822;2023-10-08T14:29:38;23.00;79.70
8420;DHT22;4247;48.550;8.822;2023-10-08T14:32:06;23.00;80.80
8420;DHT22;4247;48.550;8.822;2023-10-08T14:34:35;22.90;81.10
8420;DHT22;4247;48.550;8.822;2023-10-08T14:37:19;22.90;78.10
8420;DHT22;4247;48.550;8.822;2023-10-08T14:40:04;22.90;78.00
8420;DHT22;4247;48.550;8.822;2023-10-08T14:42:48;22.90;84.50
8420;DHT22;4247;48.550;8.822;2023-10-08T14:45:23;22.90;84.70
8420;DHT22;4247;48.550;8.822;2023-10-08T14:47:53;22.90;81.40
8420;DHT22;4247;48.550;8.822;2023-10-08T14:50:20;22.90;83.70
8420;DHT22;4247;48.550;8.822;2023-10-08T14:52:47;22.90;82.20
8420;DHT22;4247;48.550;8.822;2023-10-08T14:55:14;23.00;78.90
8420;DHT22;4247;48.550;8.822;2023-10-08T14:57:41;23.00;80.40
8420;DHT22;4247;48.550;8.822;2023-10-08T15:00:09;23.10;80.30
8420;DHT22;4247;48.550;8.822;2023-10-08T15:02:38;23.20;78.80
8420;DHT22;4247;48.550;8.822;2023-10-08T15:05:05;23.20;84.30
8420;DHT22;4247;48.550;8.822;2023-10-08T15:07:32;23.20;80.90
8420;DHT22;4247;48.550;8.822;2023-10-08T15:09:59;23.20;77.40
8420;DHT22;4247;48.550;8.822;2023-10-08T15:12:26;23.10;81.80
8420;DHT22;4247;48.550;8.822;2023-10-08T15:14:53;23.10;83.70
8420;DHT22;4247;48.550;8.822;2023-10-08T15:17:20;23.10;84.70
8420;DHT22;4247;48.550;8.822;2023-10-08T15:19:48;22.90;83.20
8420;DHT22;4247;48.550;8.822;2023-10-08T15:22:16;22.90;80.30
8420;DHT22;4247;48.550;8.822;2023-10-08T15:24:43;22.90;80.40
8420;DHT22;4247;48.550;8.822;2023-10-08T15:27:10;22.90;79.50
8420;DHT22;4247;48.550;8.822;2023-10-08T15:29:37;22.90;78.80
8420;DHT22;4247;48.550;8.822;2023-10-08T15:32:04;22.90;84.00
8420;DHT22;4247;48.550;8.822;2023-10-08T15:34:31;22.80;83.60
8420;DHT22;4247;48.550;8.822;2023-10-08T15:36:59;22.80;82.40
8420;DHT22;4247;48.550;8.822;2023-10-08T15:39:26;22.70;85.10
8420;DHT22;4247;48.550;8.822;2023-10-08T15:41:54;22.70;85.50
8420;DHT22;4247;48.550;8.822;2023-10-08T15:44:22;22.60;84.90
8420;DHT22;4247;48.550;8.822;2023-10-08T15:46:49;22.50;83.20
8420;DHT22;4247;48.550;8.822;2023-10-08T15:49:16;22.50;84.10
8420;DHT22;4247;48.550;8.822;2023-10-08T15:51:45;22.50;82.60
8420;DHT22;4247;48.550;8.822;2023-10-08T15:54:13;22.40;85.80
8420;DHT22;4247;48.550;8.822;2023-10-08T15:56:43;22.30;85.20
8420;DHT22;4247;48.550;8.822;2023-10-08T15:59:10;22.20;86.90
8420;DHT22;4247;48.550;8.822;2023-10-08T16:01:36;22.10;85.70
8420;DHT22;4247;48.550;8.822;2023-10-08T16:04:04;22.10;86.30
8420;DHT22;4247;48.550;8.822;2023-10-08T16:06:32;21.90;86.50
8420;DHT22;4247;48.550;8.822;2023-10-08T16:08:59;21.90;86.10
8420;DHT22;4247;48.550;8.822;2023-10-08T16:11:27;21.80;86.70
8420;DHT22;4247;48.550;8.822;2023-10-08T16:13:55;21.70;88.40
8420;DHT22;4247;48.550;8.822;2023-10-08T16:16:22;21.60;87.10
8420;DHT22;4247;48.550;8.822;2023-10-08T16:18:48;21.50;89.00
8420;DHT22;4247;48.550;8.822;2023-10-08T16:21:15;21.50;87.10
8420;DHT22;4247;48.550;8.822;2023-10-08T16:23:46;21.40;90.10
8420;DHT22;4247;48.550;8.822;2023-10-08T16:26:13;21.30;89.50
8420;DHT22;4247;48.550;8.822;2023-10-08T16:28:41;21.20;87.00